createdAt,value
2022-08-07T00:00:35.856Z,60.40
2022-08-07T00:03:07.109Z,61.10
2022-08-07T00:05:37.047Z,60.60
2022-08-07T00:08:04.971Z,61.10
2022-08-07T00:10:31.922Z,61.90
2022-08-07T00:13:02.178Z,63.40
2022-08-07T00:15:38.501Z,63.40
2022-08-07T00:18:18.694Z,62.40
2022-08-07T00:20:47.724Z,63.60
2022-08-07T00:23:14.899Z,63.40
2022-08-07T00:25:51.722Z,63.80
2022-08-07T00:28:31.774Z,63.50
2022-08-07T00:31:12.416Z,64.90
2022-08-07T00:33:39.955Z,65.90
2022-08-07T00:36:07.778Z,64.30
2022-08-07T00:38:36.721Z,65.90
2022-08-07T00:41:09.986Z,64.80
2022-08-07T00:43:59.021Z,66.00
2022-08-07T00:46:28.439Z,64.50
2022-08-07T00:48:55.453Z,64.60
2022-08-07T00:51:22.335Z,64.80
2022-08-07T00:53:55.974Z,64.90
2022-08-07T00:56:23.586Z,65.20
2022-08-07T00:58:57.491Z,65.10
2022-08-07T01:01:24.669Z,66.00
2022-08-07T01:03:57.126Z,65.40
2022-08-07T01:06:28.801Z,65.50
2022-08-07T01:08:58.305Z,65.00
2022-08-07T01:12:09.828Z,65.20
2022-08-07T01:14:12.774Z,65.40
2022-08-07T01:16:47.335Z,65.40
2022-08-07T01:19:18.865Z,65.60
2022-08-07T01:21:50.197Z,68.60
2022-08-07T01:24:22.293Z,66.20
2022-08-07T01:26:52.171Z,66.30
2022-08-07T01:29:23.248Z,67.50
2022-08-07T01:31:52.379Z,67.40
2022-08-07T01:34:19.713Z,67.50
2022-08-07T01:36:57.997Z,67.50
2022-08-07T01:39:40.534Z,67.70
2022-08-07T01:42:38.433Z,67.70
2022-08-07T01:45:09.822Z,68.20
2022-08-07T01:48:18.568Z,68.40
2022-08-07T01:50:31.162Z,68.10
2022-08-07T01:52:59.190Z,68.70
2022-08-07T01:55:28.700Z,68.20
2022-08-07T01:58:06.338Z,68.90
2022-08-07T02:00:51.614Z,68.40
2022-08-07T02:03:26.576Z,69.30
2022-08-07T02:06:31.577Z,69.20
2022-08-07T02:09:06.288Z,69.00
2022-08-07T02:12:03.747Z,69.10
2022-08-07T02:14:35.879Z,69.60
2022-08-07T02:17:03.994Z,69.30
2022-08-07T02:20:07.846Z,69.80
2022-08-07T02:22:20.752Z,69.30
2022-08-07T02:24:53.310Z,69.90
2022-08-07T02:27:21.925Z,70.10
2022-08-07T02:29:54.508Z,70.40
2022-08-07T02:32:29.833Z,70.30
2022-08-07T02:34:57.928Z,70.00
2022-08-07T02:37:26.974Z,70.20
2022-08-07T02:40:01.998Z,70.20
2022-08-07T02:42:41.595Z,70.40
2022-08-07T02:45:58.269Z,70.40
2022-08-07T02:47:59.138Z,70.70
2022-08-07T02:50:30.836Z,70.80
2022-08-07T02:53:03.609Z,71.10
2022-08-07T02:56:03.179Z,71.70
2022-08-07T02:58:22.899Z,71.90
2022-08-07T03:00:57.389Z,71.60
2022-08-07T03:03:29.532Z,71.60
2022-08-07T03:06:16.337Z,71.90
2022-08-07T03:08:44.464Z,71.60
2022-08-07T03:11:11.356Z,71.40
2022-08-07T03:13:49.971Z,71.40
2022-08-07T03:16:23.058Z,72.20
2022-08-07T03:18:56.417Z,71.80
2022-08-07T03:21:24.485Z,72.20
2022-08-07T03:24:17.989Z,72.60
2022-08-07T03:26:57.985Z,73.20
2022-08-07T03:29:37.885Z,72.60
2022-08-07T03:32:12.879Z,73.50
2022-08-07T03:34:47.155Z,72.60
2022-08-07T03:37:32.850Z,72.30
2022-08-07T03:40:16.451Z,73.80
2022-08-07T03:42:44.063Z,72.90
2022-08-07T03:45:12.767Z,73.00
2022-08-07T03:48:01.422Z,73.30
2022-08-07T03:50:29.078Z,73.30
2022-08-07T03:53:00.373Z,73.40
2022-08-07T03:55:57.978Z,74.10
2022-08-07T03:59:07.238Z,74.10
2022-08-07T04:01:07.631Z,74.20
2022-08-07T04:03:54.039Z,74.30
2022-08-07T04:06:37.660Z,74.60
2022-08-07T04:09:15.700Z,74.50
2022-08-07T04:12:25.747Z,75.10
2022-08-07T04:14:38.026Z,75.10
2022-08-07T04:17:19.810Z,75.40
2022-08-07T04:19:52.093Z,75.50
2022-08-07T04:22:28.933Z,75.50
2022-08-07T04:25:01.705Z,75.40
2022-08-07T04:27:36.161Z,75.40
2022-08-07T04:30:21.439Z,75.50
2022-08-07T04:33:08.289Z,75.10
2022-08-07T04:35:38.570Z,75.80
2022-08-07T04:38:11.433Z,75.50
2022-08-07T04:40:44.068Z,75.60
2022-08-07T04:44:13.118Z,75.50
2022-08-07T04:46:59.502Z,78.00
2022-08-07T04:50:03.495Z,76.30
2022-08-07T04:52:46.938Z,75.60
2022-08-07T04:58:16.700Z,77.40
2022-08-07T04:58:35.001Z,76.00
2022-08-07T05:01:20.907Z,76.70
2022-08-07T05:04:07.556Z,77.90
2022-08-07T05:06:58.343Z,77.20
2022-08-07T05:09:58.766Z,78.80
2022-08-07T05:12:53.636Z,78.40
2022-08-07T05:15:26.803Z,78.80
2022-08-07T05:18:08.590Z,77.40
2022-08-07T05:20:46.885Z,78.90
2022-08-07T05:23:29.064Z,78.30
2022-08-07T05:26:15.225Z,78.30
2022-08-07T05:28:51.475Z,77.40
2022-08-07T05:31:24.105Z,77.60
2022-08-07T05:34:05.420Z,78.00
2022-08-07T05:36:39.130Z,77.70
2022-08-07T05:40:17.166Z,77.80
2022-08-07T05:42:06.375Z,77.50
2022-08-07T05:44:41.535Z,77.50
2022-08-07T05:47:38.608Z,77.50
2022-08-07T05:50:01.702Z,77.60
2022-08-07T05:52:32.722Z,77.30
2022-08-07T05:55:07.036Z,77.00
2022-08-07T05:57:41.955Z,77.00
2022-08-07T06:00:16.532Z,76.80
2022-08-07T06:02:53.217Z,76.80
2022-08-07T06:05:28.221Z,78.00
2022-08-07T06:08:14.612Z,76.30
2022-08-07T06:10:51.217Z,76.10
2022-08-07T06:14:10.538Z,76.00
2022-08-07T06:16:08.007Z,76.50
2022-08-07T06:18:38.358Z,75.80
2022-08-07T06:22:16.833Z,75.40
2022-08-07T06:24:45.720Z,76.00
2022-08-07T06:26:43.300Z,75.30
2022-08-07T06:29:11.133Z,75.20
2022-08-07T06:31:49.639Z,75.10
2022-08-07T06:34:21.456Z,74.70
2022-08-07T06:36:51.949Z,74.30
2022-08-07T06:40:16.703Z,74.00
2022-08-07T06:42:34.874Z,73.90
2022-08-07T06:45:12.500Z,73.90
2022-08-07T06:47:59.013Z,72.90
2022-08-07T06:50:35.967Z,72.30
2022-08-07T06:53:04.790Z,71.90
2022-08-07T06:55:53.723Z,71.50
2022-08-07T06:58:32.214Z,71.50
2022-08-07T07:01:07.102Z,71.10
2022-08-07T07:03:47.951Z,70.80
2022-08-07T07:06:23.749Z,70.90
2022-08-07T07:08:51.100Z,71.30
2022-08-07T07:12:09.096Z,71.30
2022-08-07T07:14:04.807Z,71.00
2022-08-07T07:16:38.898Z,70.70
2022-08-07T07:19:56.513Z,70.50
2022-08-07T07:22:04.939Z,71.00
2022-08-07T07:24:39.846Z,69.90
2022-08-07T07:27:10.561Z,70.10
2022-08-07T07:30:07.540Z,70.00
2022-08-07T07:32:27.391Z,70.00
2022-08-07T07:34:56.332Z,69.90
2022-08-07T07:37:49.604Z,69.70
2022-08-07T07:40:15.688Z,69.40
2022-08-07T07:42:50.862Z,69.30
2022-08-07T07:45:19.439Z,69.20
2022-08-07T07:47:52.287Z,69.20
2022-08-07T07:50:36.038Z,69.30
2022-08-07T07:53:06.383Z,69.10
2022-08-07T07:55:57.533Z,68.90
2022-08-07T07:58:29.817Z,68.50
2022-08-07T08:00:57.637Z,68.30
2022-08-07T08:04:11.128Z,68.30
2022-08-07T08:06:13.096Z,68.20
2022-08-07T08:08:41.861Z,68.00
2022-08-07T08:11:16.100Z,67.90
2022-08-07T08:13:57.024Z,68.00
2022-08-07T08:16:35.275Z,67.50
2022-08-07T08:19:09.932Z,67.50
2022-08-07T08:22:08.188Z,67.30
2022-08-07T08:25:09.427Z,66.90
2022-08-07T08:27:56.551Z,67.00
2022-08-07T08:30:28.610Z,67.00
2022-08-07T08:33:03.737Z,67.00
2022-08-07T08:35:43.048Z,67.00
2022-08-07T08:38:18.114Z,67.00
2022-08-07T08:40:51.238Z,67.00
2022-08-07T08:43:42.031Z,66.80
2022-08-07T08:46:28.769Z,66.90
2022-08-07T08:49:14.869Z,67.20
2022-08-07T08:52:14.437Z,66.90
2022-08-07T08:55:21.103Z,66.80
2022-08-07T08:58:24.840Z,67.50
2022-08-07T09:01:19.222Z,66.40
2022-08-07T09:03:59.259Z,66.00
2022-08-07T09:06:29.654Z,65.40
2022-08-07T09:09:30.247Z,66.00
2022-08-07T09:12:30.800Z,66.20
2022-08-07T09:16:22.880Z,66.20
2022-08-07T09:18:35.003Z,65.90
2022-08-07T09:21:57.795Z,65.90
2022-08-07T09:24:33.304Z,65.30
2022-08-07T09:27:30.855Z,65.10
2022-08-07T09:30:08.017Z,65.30
2022-08-07T09:32:57.367Z,65.30
2022-08-07T09:36:03.025Z,65.30
2022-08-07T09:38:50.108Z,64.90
2022-08-07T09:42:02.994Z,64.70
2022-08-07T09:47:24.928Z,64.30
2022-08-07T09:48:11.677Z,64.50
2022-08-07T09:50:59.503Z,62.50
2022-08-07T09:53:26.699Z,60.80
2022-08-07T09:56:34.049Z,61.50
2022-08-07T09:59:21.940Z,60.70
2022-08-07T10:02:14.508Z,60.90
2022-08-07T10:04:55.021Z,59.70
2022-08-07T10:07:31.611Z,59.80
2022-08-07T10:10:23.246Z,59.60
2022-08-07T10:13:55.470Z,58.40
2022-08-07T10:16:32.186Z,59.00
2022-08-07T10:19:26.835Z,55.70
2022-08-07T10:22:24.994Z,54.80
2022-08-07T10:25:04.009Z,52.40
2022-08-07T10:28:03.064Z,54.60
2022-08-07T10:30:39.342Z,53.70
2022-08-07T10:34:06.569Z,53.90
2022-08-07T10:36:59.062Z,55.90
2022-08-07T10:39:41.910Z,53.90
2022-08-07T10:42:51.399Z,55.10
2022-08-07T10:45:58.129Z,55.20
2022-08-07T10:48:35.047Z,54.60
2022-08-07T10:51:57.423Z,56.50
2022-08-07T10:54:18.815Z,54.40
2022-08-07T10:57:22.275Z,54.50
2022-08-07T11:00:36.998Z,54.30
2022-08-07T11:03:11.298Z,54.60
2022-08-07T11:05:50.666Z,54.00
2022-08-07T11:08:18.441Z,54.00
2022-08-07T11:11:46.224Z,55.10
2022-08-07T11:15:00.288Z,53.60
2022-08-07T11:17:49.899Z,54.10
2022-08-07T11:20:36.172Z,54.60
2022-08-07T11:23:26.349Z,53.60
2022-08-07T11:26:23.282Z,53.00
2022-08-07T11:29:13.095Z,53.00
2022-08-07T11:31:58.344Z,53.60
2022-08-07T11:34:42.370Z,53.10
2022-08-07T11:37:38.159Z,52.90
2022-08-07T11:40:24.012Z,51.80
2022-08-07T11:43:06.200Z,52.60
2022-08-07T11:46:10.966Z,53.10
2022-08-07T11:49:51.392Z,51.30
2022-08-07T11:52:35.539Z,51.70
2022-08-07T11:56:09.383Z,52.10
2022-08-07T11:58:54.743Z,51.90
2022-08-07T12:01:58.708Z,51.30
2022-08-07T12:04:51.722Z,52.10
2022-08-07T12:07:38.582Z,51.50
2022-08-07T12:10:14.867Z,51.60
2022-08-07T12:13:11.503Z,51.20
2022-08-07T12:16:06.081Z,51.30
2022-08-07T12:19:10.628Z,50.80
2022-08-07T12:22:37.218Z,49.80
2022-08-07T12:26:02.761Z,50.20
2022-08-07T12:28:49.801Z,49.90
2022-08-07T12:31:52.706Z,50.00
2022-08-07T12:34:36.358Z,49.80
2022-08-07T12:37:08.775Z,50.30
2022-08-07T12:39:51.052Z,50.00
2022-08-07T12:42:27.571Z,50.80
2022-08-07T12:44:58.878Z,49.80
2022-08-07T12:47:39.717Z,50.00
2022-08-07T12:50:48.716Z,49.00
2022-08-07T12:53:21.863Z,47.00
2022-08-07T12:56:10.037Z,48.90
2022-08-07T12:58:40.303Z,47.90
2022-08-07T13:01:32.503Z,49.00
2022-08-07T13:04:34.098Z,47.60
2022-08-07T13:08:14.055Z,47.30
2022-08-07T13:10:39.391Z,47.60
2022-08-07T13:13:48.280Z,47.70
2022-08-07T13:16:55.167Z,47.70
2022-08-07T13:19:59.798Z,47.20
2022-08-07T13:22:31.022Z,47.20
2022-08-07T13:25:15.111Z,48.30
2022-08-07T13:28:12.757Z,47.10
2022-08-07T13:30:41.343Z,47.80
2022-08-07T13:34:32.696Z,47.70
2022-08-07T13:36:52.613Z,46.90
2022-08-07T13:40:36.430Z,46.60
2022-08-07T13:42:48.779Z,46.90
2022-08-07T13:46:06.821Z,47.60
2022-08-07T13:48:06.202Z,47.20
2022-08-07T13:51:00.291Z,47.20
2022-08-07T13:53:23.918Z,48.00
2022-08-07T13:55:54.629Z,47.20
2022-08-07T13:58:42.796Z,46.70
2022-08-07T14:01:25.042Z,46.70
2022-08-07T14:04:07.053Z,47.10
2022-08-07T14:06:37.159Z,47.00
2022-08-07T14:09:06.396Z,46.30
2022-08-07T14:11:53.849Z,46.30
2022-08-07T14:14:55.161Z,46.40
2022-08-07T14:18:13.193Z,46.40
2022-08-07T14:20:40.130Z,45.90
2022-08-07T14:23:08.572Z,46.20
2022-08-07T14:25:39.569Z,45.80
2022-08-07T14:28:14.969Z,46.10
2022-08-07T14:30:47.167Z,46.70
2022-08-07T14:33:22.242Z,45.70
2022-08-07T14:35:50.067Z,46.40
2022-08-07T14:38:31.397Z,46.50
2022-08-07T14:41:12.444Z,46.20
2022-08-07T14:43:57.987Z,46.20
2022-08-07T14:46:32.036Z,45.60
2022-08-07T14:49:17.417Z,46.40
2022-08-07T14:52:03.138Z,45.90
2022-08-07T14:57:21.111Z,45.10
2022-08-07T15:00:04.557Z,46.00
2022-08-07T15:02:34.537Z,46.30
2022-08-07T15:05:03.052Z,46.60
2022-08-07T15:07:47.327Z,46.30
2022-08-07T15:10:26.616Z,46.40
2022-08-07T15:13:11.570Z,46.20
2022-08-07T15:15:40.756Z,45.60
2022-08-07T15:18:34.069Z,45.40
2022-08-07T15:21:58.884Z,45.60
2022-08-07T15:25:15.069Z,45.00
2022-08-07T15:27:11.996Z,45.50
2022-08-07T15:30:04.603Z,45.30
2022-08-07T15:32:39.939Z,46.10
2022-08-07T15:36:00.528Z,45.40
2022-08-07T15:41:24.074Z,45.90
2022-08-07T15:44:10.707Z,45.30
2022-08-07T15:46:49.916Z,45.70
2022-08-07T15:49:25.278Z,44.90
2022-08-07T15:54:36.149Z,45.20
2022-08-07T15:57:28.347Z,44.20
2022-08-07T16:00:06.671Z,44.80
2022-08-07T16:02:46.554Z,44.30
2022-08-07T16:05:19.250Z,43.90
2022-08-07T16:08:31.123Z,44.90
2022-08-07T16:10:41.257Z,44.60
2022-08-07T16:13:58.098Z,44.10
2022-08-07T16:16:47.884Z,43.10
2022-08-07T16:19:16.937Z,42.70
2022-08-07T16:22:07.277Z,42.70
2022-08-07T16:24:52.862Z,42.80
2022-08-07T16:27:47.445Z,43.40
2022-08-07T16:30:30.817Z,42.20
2022-08-07T16:34:03.156Z,43.00
2022-08-07T16:36:31.344Z,42.10
2022-08-07T16:39:48.613Z,41.10
2022-08-07T16:42:41.602Z,40.90
2022-08-07T16:46:34.638Z,40.30
2022-08-07T16:48:53.763Z,40.30
2022-08-07T16:51:54.111Z,39.60
2022-08-07T16:54:32.543Z,41.40
2022-08-07T16:57:06.234Z,39.90
2022-08-07T17:00:10.950Z,39.70
2022-08-07T17:03:11.340Z,39.40
2022-08-07T17:06:19.159Z,38.50
2022-08-07T17:09:10.797Z,38.80
2022-08-07T17:12:03.921Z,39.50
2022-08-07T17:14:37.710Z,39.20
2022-08-07T17:17:09.836Z,38.30
2022-08-07T17:20:02.088Z,39.30
2022-08-07T17:22:37.918Z,37.40
2022-08-07T17:25:20.019Z,36.90
2022-08-07T17:28:12.414Z,37.00
2022-08-07T17:31:15.583Z,37.60
2022-08-07T17:34:15.256Z,36.90
2022-08-07T17:36:48.963Z,37.40
2022-08-07T17:39:53.014Z,37.60
2022-08-07T17:42:27.100Z,36.70
2022-08-07T17:44:57.231Z,36.10
2022-08-07T17:47:42.609Z,37.20
2022-08-07T17:50:30.335Z,35.70
2022-08-07T17:53:06.063Z,35.30
2022-08-07T17:56:01.360Z,35.00
2022-08-07T17:58:50.171Z,35.40
2022-08-07T18:01:40.911Z,34.60
2022-08-07T18:04:24.693Z,35.70
2022-08-07T18:07:24.704Z,35.10
2022-08-07T18:10:32.450Z,36.30
2022-08-07T18:13:20.607Z,33.70
2022-08-07T18:16:07.359Z,34.00
2022-08-07T18:21:01.390Z,34.30
2022-08-07T18:22:02.733Z,35.30
2022-08-07T18:24:37.954Z,34.60
2022-08-07T18:27:25.407Z,35.10
2022-08-07T18:30:32.977Z,35.60
2022-08-07T18:33:12.134Z,36.00
2022-08-07T18:35:51.875Z,36.20
2022-08-07T18:38:58.896Z,36.10
2022-08-07T18:41:46.013Z,36.00
2022-08-07T18:44:31.961Z,36.20
2022-08-07T18:47:22.459Z,36.50
2022-08-07T18:50:39.534Z,36.50
2022-08-07T18:53:36.996Z,36.70
2022-08-07T18:56:33.873Z,36.80
2022-08-07T18:59:46.823Z,37.00
2022-08-07T19:02:36.467Z,37.30
2022-08-07T19:06:02.202Z,37.40
2022-08-07T19:08:31.328Z,37.40
2022-08-07T19:11:02.535Z,37.60
2022-08-07T19:14:00.735Z,37.80
2022-08-07T19:17:04.718Z,37.90
2022-08-07T19:19:56.950Z,37.70
2022-08-07T19:22:47.168Z,37.90
2022-08-07T19:26:23.122Z,37.80
2022-08-07T19:28:56.736Z,38.10
2022-08-07T19:31:39.652Z,38.20
2022-08-07T19:33:46.727Z,38.40
2022-08-07T19:36:27.750Z,38.50
2022-08-07T19:38:57.175Z,38.50
2022-08-07T19:41:44.138Z,38.70
2022-08-07T19:44:21.459Z,38.70
2022-08-07T19:46:55.734Z,39.00
2022-08-07T19:49:57.097Z,39.00
2022-08-07T19:52:27.482Z,39.10
2022-08-07T19:54:58.251Z,39.10
2022-08-07T19:58:00.289Z,39.20
2022-08-07T20:00:29.719Z,39.40
2022-08-07T20:03:35.079Z,39.70
2022-08-07T20:06:04.539Z,39.90
2022-08-07T20:08:36.790Z,39.60
2022-08-07T20:11:09.611Z,39.70
2022-08-07T20:13:57.152Z,39.80
2022-08-07T20:16:35.189Z,40.50
2022-08-07T20:19:05.294Z,40.40
2022-08-07T20:21:46.762Z,40.40
2022-08-07T20:24:28.684Z,40.50
2022-08-07T20:26:57.611Z,41.10
2022-08-07T20:29:49.574Z,41.60
2022-08-07T20:32:25.262Z,41.00
2022-08-07T20:34:54.528Z,41.50
2022-08-07T20:37:33.738Z,41.30
2022-08-07T20:40:05.085Z,41.80
2022-08-07T20:42:56.272Z,42.10
2022-08-07T20:45:32.928Z,42.30
2022-08-07T20:48:11.499Z,42.50
2022-08-07T20:51:01.365Z,42.70
2022-08-07T20:54:02.348Z,43.50
2022-08-07T20:56:16.166Z,43.30
2022-08-07T20:58:44.383Z,43.70
2022-08-07T21:01:19.603Z,44.00
2022-08-07T21:04:18.628Z,44.10
2022-08-07T21:06:38.090Z,44.30
2022-08-07T21:09:14.029Z,44.50
2022-08-07T21:11:51.371Z,44.90
2022-08-07T21:14:32.719Z,46.70
2022-08-07T21:18:02.034Z,45.60
2022-08-07T21:20:04.824Z,46.80
2022-08-07T21:22:45.142Z,46.40
2022-08-07T21:25:42.596Z,46.20
2022-08-07T21:28:10.414Z,48.00
2022-08-07T21:31:15.133Z,47.90
2022-08-07T21:33:50.941Z,48.10
2022-08-07T21:36:32.111Z,47.90
2022-08-07T21:39:45.251Z,48.40
2022-08-07T21:42:46.630Z,49.00
2022-08-07T21:46:03.795Z,48.20
2022-08-07T21:48:42.660Z,48.60
2022-08-07T21:51:24.912Z,49.50
2022-08-07T21:53:54.123Z,50.00
2022-08-07T21:56:47.108Z,49.40
2022-08-07T22:00:05.207Z,51.10
2022-08-07T22:02:43.506Z,51.80
2022-08-07T22:05:22.137Z,51.60
2022-08-07T22:08:10.271Z,50.70
2022-08-07T22:10:37.672Z,50.70
2022-08-07T22:13:13.608Z,50.90
2022-08-07T22:16:44.838Z,51.40
2022-08-07T22:19:07.481Z,52.70
2022-08-07T22:22:27.591Z,53.00
2022-08-07T22:25:11.110Z,53.60
2022-08-07T22:28:20.129Z,52.80
2022-08-07T22:30:59.472Z,52.70
2022-08-07T22:33:52.766Z,53.90
2022-08-07T22:37:02.395Z,53.20
2022-08-07T22:39:53.024Z,55.70
2022-08-07T22:42:25.795Z,54.20
2022-08-07T22:44:58.749Z,53.80
2022-08-07T22:48:04.225Z,54.50
2022-08-07T22:51:04.404Z,57.10
2022-08-07T22:54:07.582Z,57.80
2022-08-07T22:57:07.260Z,57.00
2022-08-07T23:00:13.198Z,58.10
2022-08-07T23:02:48.302Z,59.30
2022-08-07T23:06:10.153Z,58.20
2022-08-07T23:08:54.540Z,58.10
2022-08-07T23:11:44.315Z,58.10
2022-08-07T23:14:40.333Z,59.60
2022-08-07T23:17:42.284Z,58.90
2022-08-07T23:20:51.202Z,60.70
2022-08-07T23:24:06.588Z,60.70
2022-08-07T23:27:12.946Z,61.40
2022-08-07T23:30:37.523Z,61.90
2022-08-07T23:34:33.303Z,61.30
2022-08-07T23:36:37.237Z,61.90
2022-08-07T23:39:09.835Z,61.60
2022-08-07T23:42:05.153Z,59.70
2022-08-07T23:45:03.358Z,62.70
2022-08-07T23:48:02.685Z,62.70
2022-08-07T23:50:54.441Z,62.70
2022-08-07T23:53:49.965Z,61.50
2022-08-07T23:56:53.467Z,61.30
